Time;durP1;ratioP1;P1;durP2;ratioP2;P2;SDS_P1;SDS_P2;PMS_P1;PMS_P2;Temp;Humidity;BMP_temperature;BMP_pressure;BME280_temperature;BME280_humidity;BME280_pressure;Samples;Min_cycle;Max_cycle;Signal;HPM_P1;HPM_P2
2023/09/18 00:00:42;;;;;;;156.93;84.32;;;21.20;99.90;;;;;;5051412;28;20494;-67
2023/09/18 00:03:08;;;;;;;113.72;75.88;;;20.90;99.90;;;;;;5049371;28;20422;-66
2023/09/18 00:05:34;;;;;;;123.88;79.82;;;20.80;99.90;;;;;;5049023;28;20078;-67
2023/09/18 00:08:01;;;;;;;111.47;77.20;;;21.40;99.90;;;;;;5049219;28;20044;-66
2023/09/18 00:10:28;;;;;;;119.95;78.20;;;21.60;99.90;;;;;;5059023;28;20436;-67
2023/09/18 00:12:54;;;;;;;123.35;78.03;;;20.90;99.90;;;;;;5068751;28;20047;-66
2023/09/18 00:15:20;;;;;;;129.30;80.15;;;20.80;99.90;;;;;;5069036;28;20044;-67
2023/09/18 00:17:45;;;;;;;121.22;78.93;;;20.80;99.90;;;;;;5050614;28;20071;-67
2023/09/18 00:20:11;;;;;;;121.22;79.82;;;20.80;99.90;;;;;;5049328;28;20091;-67
2023/09/18 00:22:37;;;;;;;125.93;82.35;;;20.80;99.90;;;;;;5048938;28;20076;-67
2023/09/18 00:25:03;;;;;;;113.82;77.82;;;21.70;99.90;;;;;;5067317;28;20405;-67
2023/09/18 00:27:29;;;;;;;109.72;78.40;;;21.60;99.90;;;;;;5050015;28;20043;-67
2023/09/18 00:29:55;;;;;;;117.82;79.70;;;21.20;99.90;;;;;;5068273;28;20047;-67
2023/09/18 00:32:20;;;;;;;114.05;80.95;;;21.80;99.90;;;;;;5052655;28;20041;-68
2023/09/18 00:34:46;;;;;;;117.40;82.78;;;21.90;99.90;;;;;;5046987;28;20045;-66
2023/09/18 00:37:12;;;;;;;113.40;80.45;;;21.00;99.90;;;;;;5056665;28;20053;-67
2023/09/18 00:39:38;;;;;;;118.30;81.85;;;20.90;99.90;;;;;;5063943;28;20044;-67
2023/09/18 00:42:04;;;;;;;106.30;75.78;;;21.10;99.90;;;;;;5068332;28;20734;-67
2023/09/18 00:44:29;;;;;;;112.22;78.13;;;21.60;99.90;;;;;;5068507;28;20094;-67
2023/09/18 00:46:56;;;;;;;130.15;81.40;;;22.10;99.90;;;;;;5054149;28;20040;-68
2023/09/18 00:49:23;;;;;;;108.28;76.55;;;21.00;99.90;;;;;;5048534;28;20061;-66
2023/09/18 00:51:50;;;;;;;110.55;76.72;;;21.00;99.90;;;;;;5049048;28;20495;-67
2023/09/18 00:54:19;;;;;;;100.32;75.95;;;21.70;99.90;;;;;;5055838;28;20095;-66
2023/09/18 00:56:53;;;;;;;116.88;77.22;;;21.20;99.90;;;;;;5058791;28;20043;-67
2023/09/18 00:59:20;;;;;;;119.75;76.93;;;21.90;99.90;;;;;;5068412;28;20490;-67
2023/09/18 01:01:47;;;;;;;106.43;75.00;;;21.90;99.90;;;;;;5064911;28;20450;-66
2023/09/18 01:04:13;;;;;;;101.13;73.25;;;21.30;99.90;;;;;;5049705;28;20127;-67
2023/09/18 01:06:39;;;;;;;104.45;74.70;;;21.90;99.90;;;;;;5048257;28;20045;-66
2023/09/18 01:09:12;;;;;;;97.70;71.15;;;21.90;99.90;;;;;;5055611;28;20474;-67
2023/09/18 01:12:03;;;;;;;104.63;75.53;;;21.60;99.90;;;;;;5047991;28;20083;-67
2023/09/18 01:14:37;;;;;;;93.45;73.05;;;21.70;99.90;;;;;;5049997;28;20059;-67
2023/09/18 01:17:05;;;;;;;97.30;73.43;;;21.70;99.90;;;;;;5055474;28;20148;-67
2023/09/18 01:19:41;;;;;;;87.97;71.45;;;21.60;99.90;;;;;;5068043;28;20127;-66
2023/09/18 01:22:11;;;;;;;89.90;71.40;;;21.70;99.90;;;;;;5066438;28;20044;-66
2023/09/18 01:24:38;;;;;;;87.95;69.35;;;21.60;99.90;;;;;;5048907;28;20041;-67
2023/09/18 01:27:06;;;;;;;78.57;67.45;;;21.60;99.90;;;;;;5047704;28;20055;-67
2023/09/18 01:29:32;;;;;;;77.90;67.03;;;21.50;99.90;;;;;;5047315;28;20045;-66
2023/09/18 01:31:58;;;;;;;72.53;64.55;;;21.90;99.90;;;;;;5048364;28;20521;-66
2023/09/18 01:34:33;;;;;;;72.30;64.70;;;21.90;99.90;;;;;;5047985;28;20064;-66
2023/09/18 01:37:00;;;;;;;73.85;66.18;;;22.00;99.90;;;;;;5048349;28;20037;-66
2023/09/18 01:39:30;;;;;;;71.22;63.92;;;21.40;99.90;;;;;;5048095;28;20040;-67
2023/09/18 01:41:58;;;;;;;72.20;64.93;;;22.10;99.90;;;;;;5049154;28;20047;-67
2023/09/18 01:44:23;;;;;;;70.38;63.33;;;21.10;99.90;;;;;;5067911;28;20040;-66
2023/09/18 01:46:51;;;;;;;69.93;63.05;;;22.00;99.90;;;;;;5052596;28;20041;-66
2023/09/18 01:49:26;;;;;;;68.15;61.72;;;21.90;99.90;;;;;;5047382;28;20073;-67
2023/09/18 01:51:52;;;;;;;69.47;62.83;;;22.30;99.90;;;;;;5054228;28;20049;-66
2023/09/18 01:54:17;;;;;;;70.32;63.58;;;22.20;99.90;;;;;;5047543;28;20491;-65
2023/09/18 01:56:43;;;;;;;69.68;62.50;;;22.40;99.90;;;;;;5047257;28;20495;-66
2023/09/18 01:59:09;;;;;;;68.85;61.95;;;22.30;99.90;;;;;;5047661;28;20458;-67
2023/09/18 02:01:35;;;;;;;66.22;59.67;;;21.80;99.90;;;;;;5054236;28;20482;-67
2023/09/18 02:04:00;;;;;;;69.13;62.67;;;21.50;99.90;;;;;;5063708;28;20044;-66
2023/09/18 02:06:26;;;;;;;69.63;62.67;;;21.70;99.90;;;;;;5065488;28;20042;-66
2023/09/18 02:08:53;;;;;;;65.78;59.40;;;21.70;99.90;;;;;;5055305;28;20497;-67
2023/09/18 02:11:18;;;;;;;65.95;59.85;;;22.30;99.90;;;;;;5056550;28;20036;-67
2023/09/18 02:13:44;;;;;;;66.97;60.92;;;22.20;99.90;;;;;;5071431;28;20413;-67
2023/09/18 02:16:10;;;;;;;64.38;58.47;;;21.60;99.90;;;;;;5071212;28;20055;-66
2023/09/18 02:18:35;;;;;;;62.78;56.95;;;22.00;99.90;;;;;;5049990;28;20056;-67
2023/09/18 02:21:01;;;;;;;61.13;55.65;;;22.30;99.90;;;;;;5051757;28;20526;-66
2023/09/18 02:23:26;;;;;;;63.33;57.53;;;21.90;99.90;;;;;;5051475;28;20041;-67
2023/09/18 02:25:56;;;;;;;62.88;57.03;;;22.40;99.90;;;;;;5068899;28;20057;-67
2023/09/18 02:28:22;;;;;;;64.50;58.53;;;21.40;99.90;;;;;;5053624;28;20040;-68
2023/09/18 02:30:47;;;;;;;62.80;57.00;;;21.40;99.90;;;;;;5057393;28;20090;-66
2023/09/18 02:33:14;;;;;;;63.25;57.55;;;21.40;99.90;;;;;;5058443;28;20056;-66
2023/09/18 02:35:40;;;;;;;64.85;58.63;;;21.20;99.90;;;;;;5050981;28;20069;-67
2023/09/18 02:38:06;;;;;;;65.10;59.38;;;22.00;99.90;;;;;;5052627;28;20705;-66
2023/09/18 02:40:31;;;;;;;63.63;57.67;;;21.90;99.90;;;;;;5050825;28;20045;-67
2023/09/18 02:42:57;;;;;;;66.60;60.58;;;21.30;99.90;;;;;;5050743;28;20503;-66
2023/09/18 02:45:23;;;;;;;65.90;59.97;;;21.20;99.90;;;;;;5051130;28;20422;-66
2023/09/18 02:47:48;;;;;;;63.70;57.67;;;21.10;99.90;;;;;;5056030;28;20564;-66
2023/09/18 02:50:14;;;;;;;65.88;60.05;;;21.80;99.90;;;;;;5060742;28;20442;-66
2023/09/18 02:52:39;;;;;;;64.43;58.35;;;21.90;99.90;;;;;;5055179;28;20047;-66
2023/09/18 02:55:05;;;;;;;63.20;57.25;;;21.20;99.90;;;;;;5053978;28;20047;-66
2023/09/18 02:57:30;;;;;;;64.82;58.78;;;21.10;99.90;;;;;;5050564;28;20045;-67
2023/09/18 02:59:56;;;;;;;62.13;56.65;;;22.00;99.90;;;;;;5050427;28;20051;-67
2023/09/18 03:02:21;;;;;;;64.40;58.40;;;22.00;99.90;;;;;;5070091;28;20102;-67
2023/09/18 03:04:48;;;;;;;64.07;58.45;;;21.80;99.90;;;;;;5070518;28;20044;-67
2023/09/18 03:07:13;;;;;;;63.13;57.33;;;21.60;99.90;;;;;;5053236;28;20056;-66
2023/09/18 03:09:39;;;;;;;65.28;59.40;;;21.20;99.90;;;;;;5070510;28;20044;-67
2023/09/18 03:12:05;;;;;;;65.15;59.30;;;22.00;99.90;;;;;;5050234;28;20090;-66
2023/09/18 03:14:30;;;;;;;64.53;58.83;;;21.70;99.90;;;;;;5050076;28;20037;-67
2023/09/18 03:16:56;;;;;;;64.57;58.85;;;22.00;99.90;;;;;;5049675;28;20116;-65
2023/09/18 03:19:24;;;;;;;64.28;58.38;;;21.40;99.90;;;;;;5052042;28;20045;-66
2023/09/18 03:21:49;;;;;;;63.92;58.33;;;21.40;99.90;;;;;;5054388;28;20045;-67
2023/09/18 03:24:15;;;;;;;65.32;59.45;;;21.60;99.90;;;;;;5050442;28;20553;-67
2023/09/18 03:26:40;;;;;;;65.18;59.42;;;21.50;99.90;;;;;;5050064;28;20040;-66
2023/09/18 03:29:06;;;;;;;63.67;57.95;;;22.20;99.90;;;;;;5049848;28;20045;-66
2023/09/18 03:31:31;;;;;;;66.32;60.08;;;21.40;99.90;;;;;;5052449;28;20442;-67
2023/09/18 03:33:57;;;;;;;64.47;58.65;;;22.10;99.90;;;;;;5049560;28;20075;-67
2023/09/18 03:36:25;;;;;;;64.63;58.72;;;21.40;99.90;;;;;;5052943;28;20035;-68
2023/09/18 03:38:51;;;;;;;63.85;58.13;;;21.30;99.90;;;;;;5069468;28;20115;-67
2023/09/18 03:41:16;;;;;;;64.60;58.95;;;21.70;99.90;;;;;;5068022;28;20110;-67
2023/09/18 03:43:42;;;;;;;63.17;57.25;;;22.20;99.90;;;;;;5049711;28;20120;-67
2023/09/18 03:46:08;;;;;;;61.92;56.35;;;21.40;99.90;;;;;;5049391;28;20029;-66
2023/09/18 03:48:38;;;;;;;63.33;57.55;;;21.40;99.90;;;;;;5048048;28;20029;-67
2023/09/18 03:51:05;;;;;;;69.20;62.90;;;22.00;99.90;;;;;;5051255;28;20049;-67
2023/09/18 03:53:32;;;;;;;65.82;59.88;;;22.40;99.90;;;;;;5049309;28;20102;-68
2023/09/18 03:55:57;;;;;;;64.38;58.50;;;21.90;99.90;;;;;;5049069;28;20040;-68
2023/09/18 03:58:23;;;;;;;63.90;58.13;;;21.50;99.90;;;;;;5049215;28;20110;-67
2023/09/18 04:00:49;;;;;;;64.18;58.35;;;21.50;99.90;;;;;;5051662;28;20032;-67
2023/09/18 04:03:14;;;;;;;66.47;60.35;;;21.50;99.90;;;;;;5054597;28;20891;-67
2023/09/18 04:05:40;;;;;;;65.07;59.08;;;22.30;99.90;;;;;;5053805;28;20052;-66
2023/09/18 04:08:06;;;;;;;64.95;58.90;;;21.60;99.90;;;;;;5058246;28;20055;-67
2023/09/18 04:10:32;;;;;;;64.40;58.42;;;21.60;99.90;;;;;;5048956;28;20083;-68
2023/09/18 04:12:58;;;;;;;62.55;56.83;;;22.40;99.90;;;;;;5048959;28;20518;-66
2023/09/18 04:15:24;;;;;;;62.22;56.50;;;21.60;99.90;;;;;;5048585;28;20080;-67
2023/09/18 04:17:50;;;;;;;64.68;58.75;;;22.20;99.90;;;;;;5049142;28;20044;-68
2023/09/18 04:20:15;;;;;;;64.07;58.15;;;22.50;99.90;;;;;;5050795;28;20043;-66
2023/09/18 04:22:44;;;;;;;62.13;56.33;;;21.80;99.90;;;;;;5049253;28;20079;-67
2023/09/18 04:25:10;;;;;;;67.07;60.47;;;21.90;99.90;;;;;;5047946;28;20053;-67
2023/09/18 04:27:36;;;;;;;64.07;57.58;;;22.60;99.90;;;;;;5048929;28;20044;-66
2023/09/18 04:30:02;;;;;;;63.13;56.92;;;22.10;99.90;;;;;;5048926;28;20047;-67
2023/09/18 04:32:29;;;;;;;63.00;56.58;;;21.80;99.90;;;;;;5066498;28;20067;-67
2023/09/18 04:34:54;;;;;;;63.83;57.45;;;22.60;99.90;;;;;;5055978;28;20047;-67
2023/09/18 04:37:20;;;;;;;63.15;57.25;;;22.60;99.90;;;;;;5048775;28;20045;-67
2023/09/18 04:39:46;;;;;;;64.40;58.00;;;21.90;99.90;;;;;;5048432;28;20529;-66
2023/09/18 04:42:11;;;;;;;62.83;57.05;;;22.60;99.90;;;;;;5048729;28;20120;-67
2023/09/18 04:44:37;;;;;;;64.15;58.00;;;21.90;99.90;;;;;;5047034;28;20048;-66
2023/09/18 04:47:03;;;;;;;65.63;59.08;;;21.80;99.90;;;;;;5048459;28;20106;-67
2023/09/18 04:49:28;;;;;;;63.38;57.35;;;22.50;99.90;;;;;;5057981;28;20060;-66
2023/09/18 04:51:55;;;;;;;63.20;57.10;;;22.50;99.90;;;;;;5049603;28;20040;-66
2023/09/18 04:54:20;;;;;;;65.15;58.85;;;22.20;99.90;;;;;;5048619;28;20048;-67
2023/09/18 04:56:46;;;;;;;64.32;58.13;;;22.40;99.90;;;;;;5068219;28;20410;-66
2023/09/18 04:59:11;;;;;;;64.65;58.67;;;22.50;99.90;;;;;;5063363;28;20041;-67
2023/09/18 05:01:37;;;;;;;63.97;57.78;;;22.80;99.90;;;;;;5047222;28;20072;-66
2023/09/18 05:04:03;;;;;;;63.42;57.63;;;22.20;99.90;;;;;;5054189;28;20541;-66
2023/09/18 05:06:28;;;;;;;62.58;56.75;;;22.40;99.90;;;;;;5057659;28;20413;-66
2023/09/18 05:08:55;;;;;;;64.18;58.25;;;22.70;99.90;;;;;;5053886;28;20046;-67
2023/09/18 05:11:21;;;;;;;64.47;58.58;;;22.00;99.90;;;;;;5048351;28;20445;-66
2023/09/18 05:13:46;;;;;;;63.33;57.40;;;21.90;99.90;;;;;;5052367;28;20035;-66
2023/09/18 05:16:12;;;;;;;63.72;57.78;;;22.50;99.90;;;;;;5054273;28;20041;-67
2023/09/18 05:18:38;;;;;;;62.90;57.10;;;21.90;99.90;;;;;;5055107;28;20092;-67
2023/09/18 05:21:04;;;;;;;63.35;57.38;;;22.00;99.90;;;;;;5050884;28;20600;-67
2023/09/18 05:23:30;;;;;;;64.38;58.47;;;22.10;99.90;;;;;;5047484;28;20040;-66
2023/09/18 05:25:56;;;;;;;62.92;56.55;;;22.00;99.90;;;;;;5040191;28;20066;-67
2023/09/18 05:28:21;;;;;;;63.03;57.08;;;22.60;99.90;;;;;;5027980;28;20048;-76
2023/09/18 05:30:47;;;;;;;62.42;56.40;;;22.20;99.90;;;;;;5045383;28;20525;-63
2023/09/18 05:33:13;;;;;;;61.60;55.88;;;22.00;99.90;;;;;;5049576;28;20047;-62
2023/09/18 05:35:43;;;;;;;61.08;55.58;;;22.80;99.90;;;;;;5050980;28;20097;-63
2023/09/18 05:38:13;;;;;;;61.92;56.17;;;22.90;99.90;;;;;;5063526;28;20451;-63
2023/09/18 05:40:40;;;;;;;63.75;57.85;;;22.90;99.90;;;;;;5050891;28;20047;-63
2023/09/18 05:43:05;;;;;;;59.85;54.25;;;22.90;99.90;;;;;;5049996;28;20569;-63
2023/09/18 05:45:32;;;;;;;61.75;55.85;;;23.20;99.90;;;;;;5052069;28;20045;-63
2023/09/18 05:48:03;;;;;;;63.95;57.88;;;22.30;99.90;;;;;;5050792;28;20036;-62
2023/09/18 05:50:31;;;;;;;64.53;58.15;;;23.40;99.90;;;;;;5054538;28;20048;-63
2023/09/18 05:53:00;;;;;;;63.53;57.72;;;22.80;99.90;;;;;;5053073;28;20088;-63
2023/09/18 05:55:28;;;;;;;64.30;58.30;;;22.80;99.90;;;;;;5061802;28;20493;-63
2023/09/18 05:57:54;;;;;;;64.07;57.85;;;22.70;99.90;;;;;;5058323;28;20047;-63
2023/09/18 06:00:21;;;;;;;55.70;50.60;;;23.50;99.90;;;;;;5060864;28;20502;-64
2023/09/18 06:02:47;;;;;;;43.72;39.97;;;23.60;99.90;;;;;;5057648;28;20048;-63
2023/09/18 06:05:12;;;;;;;40.78;37.00;;;22.80;99.90;;;;;;5058588;28;20032;-64
2023/09/18 06:07:38;;;;;;;39.85;36.10;;;23.10;99.90;;;;;;5053611;28;20063;-63
2023/09/18 06:10:04;;;;;;;37.25;33.70;;;22.90;99.90;;;;;;5057693;28;20041;-64
2023/09/18 06:12:30;;;;;;;39.78;36.03;;;22.80;99.90;;;;;;5056649;28;20037;-63
2023/09/18 06:14:55;;;;;;;40.80;36.28;;;23.00;99.90;;;;;;5063073;28;20036;-64
2023/09/18 06:17:22;;;;;;;40.72;35.60;;;22.40;99.90;;;;;;5051149;28;20033;-63
2023/09/18 06:19:47;;;;;;;39.95;34.00;;;22.90;99.90;;;;;;5053318;28;20051;-64
2023/09/18 06:22:13;;;;;;;36.65;31.58;;;23.00;99.90;;;;;;5055570;28;20040;-64
2023/09/18 06:24:39;;;;;;;39.08;31.58;;;22.40;99.90;;;;;;5052927;28;20199;-63
2023/09/18 06:27:05;;;;;;;38.85;34.80;;;22.60;99.90;;;;;;5055998;28;20123;-63
2023/09/18 06:29:34;;;;;;;40.17;33.22;;;23.10;99.90;;;;;;5054446;28;20037;-64
2023/09/18 06:32:00;;;;;;;42.38;32.83;;;22.30;99.90;;;;;;5052947;28;20037;-64
2023/09/18 06:34:26;;;;;;;41.60;32.33;;;22.70;99.90;;;;;;5054172;28;20059;-64
2023/09/18 06:36:51;;;;;;;40.92;31.35;;;22.40;99.90;;;;;;5053597;28;20037;-64
2023/09/18 06:39:17;;;;;;;46.35;34.42;;;23.20;99.90;;;;;;5063401;28;20420;-67
2023/09/18 06:41:43;;;;;;;36.70;32.78;;;23.70;99.90;;;;;;5056597;28;20466;-67
2023/09/18 06:44:09;;;;;;;37.40;28.98;;;23.70;99.90;;;;;;5048839;28;20123;-66
2023/09/18 06:46:34;;;;;;;36.80;30.48;;;23.60;99.90;;;;;;5057784;28;20118;-67
2023/09/18 06:49:00;;;;;;;35.35;31.65;;;24.00;99.90;;;;;;5056424;28;20057;-66
2023/09/18 06:51:29;;;;;;;36.40;32.95;;;24.30;99.90;;;;;;5055681;28;20107;-66
2023/09/18 06:53:57;;;;;;;37.90;33.90;;;24.00;99.90;;;;;;5054483;28;20461;-66
2023/09/18 06:56:25;;;;;;;36.53;32.67;;;24.00;99.90;;;;;;5049045;28;20059;-66
2023/09/18 06:58:51;;;;;;;38.60;34.95;;;22.70;99.90;;;;;;5058899;28;20041;-66
2023/09/18 07:01:20;;;;;;;40.63;36.80;;;23.70;99.90;;;;;;5055365;28;20681;-66
2023/09/18 07:03:50;;;;;;;40.53;36.65;;;23.60;99.90;;;;;;5059781;28;20068;-66
2023/09/18 07:06:16;;;;;;;41.47;37.28;;;24.20;99.90;;;;;;5057120;28;20048;-66
2023/09/18 07:08:44;;;;;;;41.50;37.78;;;24.70;99.90;;;;;;5059201;28;20119;-66
2023/09/18 07:11:11;;;;;;;43.53;39.08;;;24.00;99.90;;;;;;5062168;28;20494;-66
2023/09/18 07:13:37;;;;;;;45.05;40.72;;;23.20;99.90;;;;;;5054920;28;20053;-66
2023/09/18 07:16:03;;;;;;;43.72;39.63;;;24.20;99.90;;;;;;5053602;28;20384;-66
2023/09/18 07:18:28;;;;;;;44.20;39.67;;;23.20;99.90;;;;;;5058866;28;20077;-67
2023/09/18 07:20:54;;;;;;;43.60;39.38;;;23.30;99.90;;;;;;5054888;28;20056;-67
2023/09/18 07:23:20;;;;;;;42.38;38.45;;;24.70;99.90;;;;;;5058697;28;20403;-67
2023/09/18 07:25:47;;;;;;;42.35;38.40;;;23.80;99.90;;;;;;5053638;28;20049;-66
2023/09/18 07:28:17;;;;;;;41.97;38.08;;;24.20;99.90;;;;;;5057503;28;20100;-66
2023/09/18 07:30:43;;;;;;;41.92;37.85;;;23.00;99.90;;;;;;5050605;28;20072;-66
2023/09/18 07:33:09;;;;;;;43.03;39.00;;;23.00;99.90;;;;;;5057756;28;20053;-66
2023/09/18 07:35:35;;;;;;;40.58;36.83;;;23.50;99.90;;;;;;5052633;28;20045;-66
2023/09/18 07:38:01;;;;;;;41.38;37.63;;;24.00;99.90;;;;;;5056533;28;20036;-66
2023/09/18 07:40:26;;;;;;;42.35;38.45;;;23.00;99.90;;;;;;5036349;28;20043;-66
2023/09/18 07:42:52;;;;;;;42.40;38.25;;;22.90;99.90;;;;;;5056414;28;20101;-66
2023/09/18 07:45:18;;;;;;;41.47;37.50;;;24.10;99.90;;;;;;5056623;28;20036;-66
2023/09/18 07:47:44;;;;;;;39.80;36.28;;;23.90;99.90;;;;;;5058476;28;20444;-66
2023/09/18 07:50:09;;;;;;;40.10;36.40;;;23.30;99.90;;;;;;5057172;28;20547;-63
2023/09/18 07:52:35;;;;;;;40.72;36.85;;;23.80;99.90;;;;;;5058387;28;20391;-63
2023/09/18 07:55:02;;;;;;;40.50;36.80;;;23.50;99.90;;;;;;5055739;28;20045;-63
2023/09/18 07:57:34;;;;;;;39.33;35.92;;;23.80;99.90;;;;;;5067399;28;20044;-64
2023/09/18 08:00:07;;;;;;;40.30;36.63;;;23.70;99.90;;;;;;5058413;28;20553;-64
2023/09/18 08:02:32;;;;;;;41.63;37.70;;;24.30;99.90;;;;;;5060540;28;20078;-64
2023/09/18 08:04:58;;;;;;;41.80;38.10;;;23.80;99.90;;;;;;5063077;28;20040;-63
2023/09/18 08:07:23;;;;;;;41.92;37.90;;;23.00;99.90;;;;;;5057168;28;20123;-64
2023/09/18 08:09:49;;;;;;;41.67;37.70;;;23.40;99.90;;;;;;5059239;28;20416;-64
2023/09/18 08:12:14;;;;;;;42.75;38.83;;;23.20;99.90;;;;;;5056549;28;20044;-64
2023/09/18 08:14:40;;;;;;;45.03;40.42;;;23.20;99.90;;;;;;5060351;28;20044;-64
2023/09/18 08:17:07;;;;;;;43.15;39.25;;;23.90;99.90;;;;;;5057900;28;20036;-65
2023/09/18 08:19:33;;;;;;;42.28;38.47;;;24.00;99.90;;;;;;5053398;28;20041;-64
2023/09/18 08:22:01;;;;;;;41.90;38.03;;;23.40;99.90;;;;;;5053758;28;20495;-65
2023/09/18 08:24:27;;;;;;;42.70;38.42;;;23.40;99.90;;;;;;5054794;28;20040;-65
2023/09/18 08:26:54;;;;;;;42.45;38.45;;;23.40;99.90;;;;;;5058741;28;20132;-64
2023/09/18 08:29:19;;;;;;;43.53;39.42;;;24.00;99.90;;;;;;5056295;28;20052;-64
2023/09/18 08:31:45;;;;;;;42.90;38.97;;;24.10;99.90;;;;;;5052802;28;20392;-64
2023/09/18 08:34:10;;;;;;;44.75;40.45;;;23.70;99.90;;;;;;5054385;28;20036;-64
2023/09/18 08:36:36;;;;;;;44.28;39.92;;;24.20;99.90;;;;;;5061791;28;20098;-65
2023/09/18 08:39:05;;;;;;;42.17;38.28;;;24.00;99.90;;;;;;5058287;28;20486;-64
2023/09/18 08:41:32;;;;;;;43.28;39.55;;;24.30;99.90;;;;;;5051128;28;20033;-65
2023/09/18 08:44:03;;;;;;;43.45;39.58;;;24.00;99.90;;;;;;5053915;28;20479;-65
2023/09/18 08:46:29;;;;;;;46.00;41.92;;;24.60;99.90;;;;;;5062338;28;20041;-64
2023/09/18 08:48:56;;;;;;;44.70;40.35;;;24.80;99.90;;;;;;5059798;28;20045;-64
2023/09/18 08:51:23;;;;;;;45.80;41.63;;;24.40;99.90;;;;;;5059244;28;20044;-64
2023/09/18 08:53:50;;;;;;;46.60;41.67;;;24.20;99.90;;;;;;5055286;28;20052;-64
2023/09/18 08:56:17;;;;;;;46.75;42.13;;;24.20;99.90;;;;;;5058593;28;20507;-64
2023/09/18 08:58:43;;;;;;;48.08;43.47;;;24.70;99.90;;;;;;5056670;28;20079;-64
2023/09/18 09:01:10;;;;;;;49.30;44.38;;;24.00;99.90;;;;;;5052761;28;20467;-64
2023/09/18 09:03:40;;;;;;;49.85;44.95;;;24.10;99.90;;;;;;5057126;28;20563;-64
2023/09/18 09:06:07;;;;;;;50.95;45.78;;;24.80;99.90;;;;;;5060450;28;20044;-65
2023/09/18 09:08:33;;;;;;;50.35;45.38;;;25.00;99.90;;;;;;5053734;28;20040;-65
2023/09/18 09:10:59;;;;;;;48.40;43.72;;;24.40;99.90;;;;;;5057224;28;20055;-65
2023/09/18 09:13:26;;;;;;;49.05;44.08;;;24.40;99.90;;;;;;5055391;28;20041;-65
2023/09/18 09:15:56;;;;;;;49.97;45.22;;;24.40;99.90;;;;;;5055903;28;20052;-65
2023/09/18 09:18:28;;;;;;;49.05;44.15;;;25.10;99.90;;;;;;5056503;28;20032;-65
2023/09/18 09:21:01;;;;;;;47.30;42.80;;;25.10;99.90;;;;;;5057230;28;20052;-64
2023/09/18 09:23:48;;;;;;;48.95;43.83;;;24.70;99.90;;;;;;5064065;28;20036;-65
2023/09/18 09:26:18;;;;;;;47.10;42.58;;;25.30;99.90;;;;;;5059396;28;20045;-65
2023/09/18 09:28:45;;;;;;;49.15;44.20;;;24.90;99.90;;;;;;5059892;28;20503;-65
2023/09/18 09:31:11;;;;;;;49.10;44.25;;;24.70;99.90;;;;;;5055499;28;20059;-65
2023/09/18 09:33:40;;;;;;;50.22;45.03;;;25.30;99.90;;;;;;5065145;28;20056;-64
2023/09/18 09:36:06;;;;;;;49.28;44.63;;;25.70;99.90;;;;;;5058486;28;20067;-64
2023/09/18 09:38:33;;;;;;;50.55;45.63;;;25.20;99.90;;;;;;5057390;28;20036;-65
2023/09/18 09:41:00;;;;;;;45.10;40.85;;;25.70;99.90;;;;;;5062272;28;20088;-64
2023/09/18 09:43:27;;;;;;;45.45;41.05;;;25.50;99.90;;;;;;5064851;28;20040;-64
2023/09/18 09:46:00;;;;;;;44.65;40.72;;;25.10;99.90;;;;;;5055888;28;20048;-64
2023/09/18 09:48:26;;;;;;;41.42;37.55;;;25.40;99.90;;;;;;5065096;28;20087;-65
2023/09/18 09:50:57;;;;;;;44.38;40.35;;;25.80;99.90;;;;;;5053430;28;20045;-65
2023/09/18 09:53:47;;;;;;;39.50;35.35;;;25.80;99.90;;;;;;5052646;28;20040;-66
2023/09/18 09:56:12;;;;;;;38.63;34.83;;;25.80;99.90;;;;;;5050295;28;20706;-64
2023/09/18 09:58:41;;;;;;;44.13;40.03;;;25.80;99.90;;;;;;5053814;28;20577;-65
2023/09/18 10:01:10;;;;;;;43.92;39.83;;;26.00;99.90;;;;;;5049461;28;20052;-73
2023/09/18 10:03:38;;;;;;;43.80;39.80;;;25.70;99.90;;;;;;5052836;28;20052;-65
2023/09/18 10:06:05;;;;;;;42.15;38.30;;;25.40;99.90;;;;;;5052808;28;20040;-69
2023/09/18 10:08:32;;;;;;;40.08;36.33;;;25.40;99.90;;;;;;5061869;28;20127;-75
2023/09/18 10:11:11;;;;;;;36.25;32.95;;;25.30;99.90;;;;;;5059969;28;20815;-66
2023/09/18 10:13:49;;;;;;;34.75;31.20;;;25.60;99.90;;;;;;5056059;28;21000;-66
2023/09/18 10:16:20;;;;;;;28.38;25.92;;;25.90;99.90;;;;;;5061904;28;20048;-61
2023/09/18 10:18:56;;;;;;;23.95;21.75;;;26.50;99.90;;;;;;5056065;28;20044;-63
2023/09/18 10:21:34;;;;;;;18.52;16.55;;;26.40;99.90;;;;;;5055021;28;20119;-63
2023/09/18 10:24:18;;;;;;;17.65;15.95;;;26.80;99.90;;;;;;5057436;28;20071;-62
2023/09/18 10:26:56;;;;;;;18.42;16.85;;;26.80;99.90;;;;;;5059060;28;20037;-63
2023/09/18 10:29:24;;;;;;;20.42;18.42;;;26.40;99.90;;;;;;5060244;28;20060;-63
2023/09/18 10:31:52;;;;;;;21.45;19.17;;;26.20;99.90;;;;;;5065345;28;20059;-63
2023/09/18 10:34:18;;;;;;;23.13;20.85;;;26.40;99.90;;;;;;5067023;28;20105;-63
2023/09/18 10:36:47;;;;;;;21.58;19.63;;;26.80;99.90;;;;;;5065899;28;20040;-63
2023/09/18 10:39:13;;;;;;;22.05;18.67;;;27.00;99.90;;;;;;5065863;28;20037;-63
2023/09/18 10:41:41;;;;;;;17.30;13.10;;;27.00;99.90;;;;;;5058471;28;20086;-63
2023/09/18 10:44:08;;;;;;;15.05;13.30;;;27.10;99.90;;;;;;5066431;28;20055;-64
2023/09/18 10:46:34;;;;;;;16.33;14.73;;;27.10;99.90;;;;;;5065530;28;20426;-63
2023/09/18 10:49:00;;;;;;;16.85;15.10;;;27.20;99.90;;;;;;5064555;28;20057;-62
2023/09/18 10:51:27;;;;;;;16.67;14.68;;;27.40;99.90;;;;;;5062841;28;20406;-63
2023/09/18 10:53:52;;;;;;;20.33;14.73;;;27.40;99.90;;;;;;5059582;28;21540;-61
2023/09/18 10:56:21;;;;;;;15.20;13.88;;;27.50;99.90;;;;;;5060287;28;20593;-62
2023/09/18 10:58:55;;;;;;;14.30;12.95;;;27.60;99.90;;;;;;5068478;28;20041;-64
2023/09/18 11:01:23;;;;;;;17.85;15.63;;;27.30;99.90;;;;;;5069786;28;20044;-62
2023/09/18 11:03:50;;;;;;;15.55;12.13;;;27.40;1.00;;;;;;5068244;28;20481;-63
2023/09/18 11:06:17;;;;;;;15.05;13.45;;;27.80;99.90;;;;;;5058415;28;20110;-63
2023/09/18 11:08:45;;;;;;;16.73;15.00;;;27.50;1.00;;;;;;5061343;28;20170;-63
2023/09/18 11:11:16;;;;;;;17.55;15.23;;;27.50;99.90;;;;;;5058528;28;20482;-63
2023/09/18 11:13:45;;;;;;;15.57;14.10;;;27.30;99.90;;;;;;5058247;28;20058;-62
2023/09/18 11:16:26;;;;;;;16.77;15.02;;;27.10;99.90;;;;;;5062423;28;20151;-62
2023/09/18 11:18:58;;;;;;;16.63;13.40;;;27.00;1.00;;;;;;5058172;28;20048;-63
2023/09/18 11:21:28;;;;;;;17.00;15.10;;;26.90;99.90;;;;;;5063446;28;20082;-61
2023/09/18 11:24:11;;;;;;;20.23;14.27;;;26.90;99.90;;;;;;5059823;28;20135;-64
2023/09/18 11:26:40;;;;;;;17.73;12.85;;;27.00;99.90;;;;;;5059948;28;20102;-63
2023/09/18 11:29:13;;;;;;;16.95;12.75;;;26.90;99.90;;;;;;5047079;28;20041;-67
2023/09/18 11:31:50;;;;;;;14.88;13.15;;;27.00;99.90;;;;;;5056344;28;20045;-68
2023/09/18 11:34:23;;;;;;;17.73;15.00;;;26.90;4.00;;;;;;5061011;28;20540;-67
2023/09/18 11:36:50;;;;;;;15.52;13.95;;;26.80;99.90;;;;;;5061900;28;20043;-67
2023/09/18 11:39:39;;;;;;;15.82;13.20;;;26.90;99.90;;;;;;5061703;28;20045;-65
2023/09/18 11:42:10;;;;;;;18.55;14.85;;;26.90;99.90;;;;;;5060471;28;20445;-67
2023/09/18 11:44:40;;;;;;;18.88;15.13;;;26.90;1.00;;;;;;5061381;28;20391;-68
2023/09/18 11:47:12;;;;;;;16.95;15.15;;;26.90;1.00;;;;;;5065981;28;20051;-67
2023/09/18 11:49:41;;;;;;;17.15;15.23;;;26.90;1.00;;;;;;5061361;28;20405;-67
2023/09/18 11:52:07;;;;;;;19.10;17.40;;;27.00;99.90;;;;;;5062087;28;20143;-68
2023/09/18 11:54:34;;;;;;;15.40;13.40;;;27.00;99.90;;;;;;5060331;28;20044;-68
2023/09/18 11:57:06;;;;;;;18.40;15.82;;;27.00;99.90;;;;;;5063998;28;20079;-68
2023/09/18 11:59:42;;;;;;;19.25;17.45;;;26.90;99.90;;;;;;5058508;28;20114;-67
2023/09/18 12:02:08;;;;;;;;;;;26.80;99.90;;;;;;5064320;28;20540;-68
2023/09/18 12:04:34;;;;;;;19.85;17.88;;;26.90;99.90;;;;;;5059820;28;19920;-68
2023/09/18 12:07:02;;;;;;;19.67;17.02;;;26.90;99.90;;;;;;5062770;28;20541;-68
2023/09/18 12:09:30;;;;;;;18.42;15.65;;;27.00;1.00;;;;;;5057514;28;20040;-68
2023/09/18 12:11:57;;;;;;;17.10;15.05;;;26.90;99.90;;;;;;5057671;28;20469;-67
2023/09/18 12:14:23;;;;;;;16.42;13.65;;;26.90;1.00;;;;;;5060195;28;20036;-66
2023/09/18 12:16:50;;;;;;;20.65;16.45;;;26.70;1.00;;;;;;5065554;28;20040;-67
2023/09/18 12:19:19;;;;;;;15.27;13.63;;;26.90;88.50;;;;;;5061675;28;20080;-67
2023/09/18 12:21:48;;;;;;;15.50;13.98;;;26.90;1.00;;;;;;5058968;28;20044;-68
2023/09/18 12:24:24;;;;;;;15.00;12.57;;;26.90;1.00;;;;;;5055503;28;20068;-67
2023/09/18 12:26:51;;;;;;;15.15;12.45;;;26.90;1.00;;;;;;5056175;28;20040;-66